sensor_id;sensor_type;location;lat;lon;timestamp;temperature;humidity
22781;DHT22;11557;50.884;4.322;2023-03-01T00:00:21;3.80;99.90
22781;DHT22;11557;50.884;4.322;2023-03-01T00:02:46;3.60;99.90
22781;DHT22;11557;50.884;4.322;2023-03-01T00:05:12;3.60;99.90
22781;DHT22;11557;50.884;4.322;2023-03-01T00:07:38;3.50;99.90
22781;DHT22;11557;50.884;4.322;2023-03-01T00:10:04;3.50;99.90
22781;DHT22;11557;50.884;4.322;2023-03-01T00:12:31;3.70;99.90
22781;DHT22;11557;50.884;4.322;2023-03-01T00:14:59;3.70;99.90
22781;DHT22;11557;50.884;4.322;2023-03-01T00:17:26;3.60;99.90
22781;DHT22;11557;50.884;4.322;2023-03-01T00:19:52;3.70;99.90
22781;DHT22;11557;50.884;4.322;2023-03-01T00:22:18;3.60;99.90
22781;DHT22;11557;50.884;4.322;2023-03-01T00:24:44;3.60;99.90
22781;DHT22;11557;50.884;4.322;2023-03-01T00:27:09;3.80;99.90
22781;DHT22;11557;50.884;4.322;2023-03-01T00:29:35;3.80;99.90
22781;DHT22;11557;50.884;4.322;2023-03-01T00:32:01;3.80;99.90
22781;DHT22;11557;50.884;4.322;2023-03-01T00:34:27;3.60;99.90
22781;DHT22;11557;50.884;4.322;2023-03-01T00:36:52;3.60;99.90
22781;DHT22;11557;50.884;4.322;2023-03-01T00:39:18;3.70;99.90
22781;DHT22;11557;50.884;4.322;2023-03-01T00:41:44;3.60;99.90
22781;DHT22;11557;50.884;4.322;2023-03-01T00:44:10;3.60;99.90
22781;DHT22;11557;50.884;4.322;2023-03-01T00:46:36;3.60;99.90
22781;DHT22;11557;50.884;4.322;2023-03-01T00:49:02;3.50;99.90
22781;DHT22;11557;50.884;4.322;2023-03-01T00:51:30;3.60;99.90
22781;DHT22;11557;50.884;4.322;2023-03-01T00:53:59;3.60;99.90
22781;DHT22;11557;50.884;4.322;2023-03-01T00:56:26;3.50;99.90
22781;DHT22;11557;50.884;4.322;2023-03-01T00:58:52;4.10;99.90
22781;DHT22;11557;50.884;4.322;2023-03-01T01:01:23;3.30;99.90
22781;DHT22;11557;50.884;4.322;2023-03-01T01:03:50;3.20;99.90
22781;DHT22;11557;50.884;4.322;2023-03-01T01:06:18;3.20;99.90
22781;DHT22;11557;50.884;4.322;2023-03-01T01:08:48;3.40;99.90
22781;DHT22;11557;50.884;4.322;2023-03-01T01:11:14;3.30;99.90
22781;DHT22;11557;50.884;4.322;2023-03-01T01:13:40;3.30;99.90
22781;DHT22;11557;50.884;4.322;2023-03-01T01:16:07;3.20;99.90
22781;DHT22;11557;50.884;4.322;2023-03-01T01:18:33;3.20;99.90
22781;DHT22;11557;50.884;4.322;2023-03-01T01:21:10;2.90;99.90
22781;DHT22;11557;50.884;4.322;2023-03-01T01:23:37;2.80;99.90
22781;DHT22;11557;50.884;4.322;2023-03-01T01:26:08;3.80;99.90
22781;DHT22;11557;50.884;4.322;2023-03-01T01:28:35;2.50;99.90
22781;DHT22;11557;50.884;4.322;2023-03-01T01:31:00;2.60;99.90
22781;DHT22;11557;50.884;4.322;2023-03-01T01:33:26;2.90;99.90
22781;DHT22;11557;50.884;4.322;2023-03-01T01:35:52;2.90;99.90
22781;DHT22;11557;50.884;4.322;2023-03-01T01:38:18;3.60;99.90
22781;DHT22;11557;50.884;4.322;2023-03-01T01:40:45;3.20;99.90
22781;DHT22;11557;50.884;4.322;2023-03-01T01:43:22;3.40;99.90
22781;DHT22;11557;50.884;4.322;2023-03-01T01:45:49;3.00;99.90
22781;DHT22;11557;50.884;4.322;2023-03-01T01:48:22;3.20;99.90
22781;DHT22;11557;50.884;4.322;2023-03-01T01:50:56;3.20;99.90
22781;DHT22;11557;50.884;4.322;2023-03-01T01:53:24;3.20;99.90
22781;DHT22;11557;50.884;4.322;2023-03-01T01:55:56;4.10;99.90
22781;DHT22;11557;50.884;4.322;2023-03-01T01:58:24;3.10;99.90
22781;DHT22;11557;50.884;4.322;2023-03-01T02:00:52;3.10;99.90
22781;DHT22;11557;50.884;4.322;2023-03-01T02:03:27;3.00;99.90
22781;DHT22;11557;50.884;4.322;2023-03-01T02:06:14;3.00;99.90
22781;DHT22;11557;50.884;4.322;2023-03-01T02:08:42;3.00;99.90
22781;DHT22;11557;50.884;4.322;2023-03-01T02:11:10;3.50;99.90
22781;DHT22;11557;50.884;4.322;2023-03-01T02:13:36;2.80;99.90
22781;DHT22;11557;50.884;4.322;2023-03-01T02:16:08;3.20;99.90
22781;DHT22;11557;50.884;4.322;2023-03-01T02:18:34;2.70;99.90
22781;DHT22;11557;50.884;4.322;2023-03-01T02:23:44;2.70;99.90
22781;DHT22;11557;50.884;4.322;2023-03-01T02:26:33;2.70;99.90
22781;DHT22;11557;50.884;4.322;2023-03-01T02:29:00;2.70;99.90
22781;DHT22;11557;50.884;4.322;2023-03-01T02:31:26;2.80;99.90
22781;DHT22;11557;50.884;4.322;2023-03-01T02:34:08;2.70;99.90
22781;DHT22;11557;50.884;4.322;2023-03-01T02:36:38;2.70;99.90
22781;DHT22;11557;50.884;4.322;2023-03-01T02:39:07;2.70;99.90
22781;DHT22;11557;50.884;4.322;2023-03-01T02:41:41;3.00;99.90
22781;DHT22;11557;50.884;4.322;2023-03-01T02:44:08;2.60;99.90
22781;DHT22;11557;50.884;4.322;2023-03-01T02:46:43;2.30;99.90
22781;DHT22;11557;50.884;4.322;2023-03-01T02:49:23;2.50;99.90
22781;DHT22;11557;50.884;4.322;2023-03-01T02:54:48;2.40;99.90
22781;DHT22;11557;50.884;4.322;2023-03-01T02:57:14;2.50;99.90
22781;DHT22;11557;50.884;4.322;2023-03-01T02:59:41;2.30;99.90
22781;DHT22;11557;50.884;4.322;2023-03-01T03:02:31;2.20;99.90
22781;DHT22;11557;50.884;4.322;2023-03-01T03:05:10;2.10;99.90
22781;DHT22;11557;50.884;4.322;2023-03-01T03:07:39;2.10;99.90
22781;DHT22;11557;50.884;4.322;2023-03-01T03:10:08;2.70;99.90
22781;DHT22;11557;50.884;4.322;2023-03-01T03:12:34;2.20;99.90
22781;DHT22;11557;50.884;4.322;2023-03-01T03:15:00;2.20;99.90
22781;DHT22;11557;50.884;4.322;2023-03-01T03:17:25;2.00;99.90
22781;DHT22;11557;50.884;4.322;2023-03-01T03:19:51;2.60;99.90
22781;DHT22;11557;50.884;4.322;2023-03-01T03:22:17;3.00;99.90
22781;DHT22;11557;50.884;4.322;2023-03-01T03:24:42;2.20;99.90
22781;DHT22;11557;50.884;4.322;2023-03-01T03:27:08;2.30;99.90
22781;DHT22;11557;50.884;4.322;2023-03-01T03:29:34;2.50;99.90
22781;DHT22;11557;50.884;4.322;2023-03-01T03:32:00;2.60;99.90
22781;DHT22;11557;50.884;4.322;2023-03-01T03:34:25;2.50;99.90
22781;DHT22;11557;50.884;4.322;2023-03-01T03:36:55;2.90;99.90
22781;DHT22;11557;50.884;4.322;2023-03-01T03:39:25;2.20;99.90
22781;DHT22;11557;50.884;4.322;2023-03-01T03:41:52;2.30;99.90
22781;DHT22;11557;50.884;4.322;2023-03-01T03:44:18;2.30;99.90
22781;DHT22;11557;50.884;4.322;2023-03-01T03:46:44;2.40;99.90
22781;DHT22;11557;50.884;4.322;2023-03-01T03:49:09;3.20;99.90
22781;DHT22;11557;50.884;4.322;2023-03-01T03:51:35;3.70;99.90
22781;DHT22;11557;50.884;4.322;2023-03-01T03:54:01;2.30;99.90
22781;DHT22;11557;50.884;4.322;2023-03-01T03:56:26;2.50;99.90
22781;DHT22;11557;50.884;4.322;2023-03-01T03:58:52;3.40;99.90
22781;DHT22;11557;50.884;4.322;2023-03-01T04:01:18;2.50;99.90
22781;DHT22;11557;50.884;4.322;2023-03-01T04:03:44;2.60;99.90
22781;DHT22;11557;50.884;4.322;2023-03-01T04:06:12;3.70;99.90
22781;DHT22;11557;50.884;4.322;2023-03-01T04:08:38;2.50;99.90
22781;DHT22;11557;50.884;4.322;2023-03-01T04:11:05;2.40;99.90
22781;DHT22;11557;50.884;4.322;2023-03-01T04:13:50;2.80;99.90
22781;DHT22;11557;50.884;4.322;2023-03-01T04:16:16;2.50;99.90
22781;DHT22;11557;50.884;4.322;2023-03-01T04:18:43;2.60;99.90
22781;DHT22;11557;50.884;4.322;2023-03-01T04:21:09;2.80;99.90
22781;DHT22;11557;50.884;4.322;2023-03-01T04:23:37;2.30;99.90
22781;DHT22;11557;50.884;4.322;2023-03-01T04:26:03;2.30;99.90
22781;DHT22;11557;50.884;4.322;2023-03-01T04:28:34;2.10;99.90
22781;DHT22;11557;50.884;4.322;2023-03-01T04:31:03;2.30;99.90
22781;DHT22;11557;50.884;4.322;2023-03-01T04:33:47;2.20;99.90
22781;DHT22;11557;50.884;4.322;2023-03-01T04:36:15;2.20;99.90
22781;DHT22;11557;50.884;4.322;2023-03-01T04:38:41;3.50;99.90
22781;DHT22;11557;50.884;4.322;2023-03-01T04:41:09;2.70;99.90
22781;DHT22;11557;50.884;4.322;2023-03-01T04:43:36;2.10;99.90
22781;DHT22;11557;50.884;4.322;2023-03-01T04:46:06;2.40;99.90
22781;DHT22;11557;50.884;4.322;2023-03-01T04:48:35;2.20;99.90
22781;DHT22;11557;50.884;4.322;2023-03-01T04:51:00;2.10;99.90
22781;DHT22;11557;50.884;4.322;2023-03-01T04:53:27;3.40;99.90
22781;DHT22;11557;50.884;4.322;2023-03-01T04:55:55;2.20;99.90
22781;DHT22;11557;50.884;4.322;2023-03-01T04:58:25;2.40;99.90
22781;DHT22;11557;50.884;4.322;2023-03-01T05:00:51;2.50;99.90
22781;DHT22;11557;50.884;4.322;2023-03-01T05:03:17;2.20;99.90
22781;DHT22;11557;50.884;4.322;2023-03-01T05:05:45;2.80;99.90
22781;DHT22;11557;50.884;4.322;2023-03-01T05:08:12;2.30;99.90
22781;DHT22;11557;50.884;4.322;2023-03-01T05:10:49;2.10;99.90
22781;DHT22;11557;50.884;4.322;2023-03-01T05:13:15;2.00;99.90
22781;DHT22;11557;50.884;4.322;2023-03-01T05:15:47;1.90;99.90
22781;DHT22;11557;50.884;4.322;2023-03-01T05:18:14;2.00;99.90
22781;DHT22;11557;50.884;4.322;2023-03-01T05:20:40;2.10;99.90
22781;DHT22;11557;50.884;4.322;2023-03-01T05:23:06;2.20;99.90
22781;DHT22;11557;50.884;4.322;2023-03-01T05:25:33;2.40;99.90
22781;DHT22;11557;50.884;4.322;2023-03-01T05:28:01;2.10;99.90
22781;DHT22;11557;50.884;4.322;2023-03-01T05:30:32;2.60;99.90
22781;DHT22;11557;50.884;4.322;2023-03-01T05:32:58;2.40;99.90
22781;DHT22;11557;50.884;4.322;2023-03-01T05:35:24;1.80;99.90
22781;DHT22;11557;50.884;4.322;2023-03-01T05:37:51;1.80;99.90
22781;DHT22;11557;50.884;4.322;2023-03-01T05:40:19;2.20;99.90
22781;DHT22;11557;50.884;4.322;2023-03-01T05:42:50;2.00;99.90
22781;DHT22;11557;50.884;4.322;2023-03-01T05:45:17;2.00;99.90
22781;DHT22;11557;50.884;4.322;2023-03-01T05:47:44;2.00;99.90
22781;DHT22;11557;50.884;4.322;2023-03-01T05:50:19;2.30;99.90
22781;DHT22;11557;50.884;4.322;2023-03-01T05:52:48;2.30;99.90
22781;DHT22;11557;50.884;4.322;2023-03-01T05:55:15;2.60;99.90
22781;DHT22;11557;50.884;4.322;2023-03-01T05:57:41;2.10;99.90
22781;DHT22;11557;50.884;4.322;2023-03-01T06:00:08;2.30;99.90
22781;DHT22;11557;50.884;4.322;2023-03-01T06:02:35;2.20;99.90
22781;DHT22;11557;50.884;4.322;2023-03-01T06:05:01;3.00;99.90
22781;DHT22;11557;50.884;4.322;2023-03-01T06:07:28;2.10;99.90
22781;DHT22;11557;50.884;4.322;2023-03-01T06:09:53;2.10;99.90
22781;DHT22;11557;50.884;4.322;2023-03-01T06:12:19;2.80;99.90
22781;DHT22;11557;50.884;4.322;2023-03-01T06:14:46;2.80;99.90
22781;DHT22;11557;50.884;4.322;2023-03-01T06:17:12;3.10;99.90
22781;DHT22;11557;50.884;4.322;2023-03-01T06:19:38;3.20;99.90
22781;DHT22;11557;50.884;4.322;2023-03-01T06:22:04;2.20;99.90
22781;DHT22;11557;50.884;4.322;2023-03-01T06:24:29;2.90;99.90
22781;DHT22;11557;50.884;4.322;2023-03-01T06:26:55;2.20;99.90
22781;DHT22;11557;50.884;4.322;2023-03-01T06:29:21;2.50;99.90
22781;DHT22;11557;50.884;4.322;2023-03-01T06:31:48;2.00;99.90
22781;DHT22;11557;50.884;4.322;2023-03-01T06:34:16;2.50;99.90
22781;DHT22;11557;50.884;4.322;2023-03-01T06:36:42;2.70;99.90
22781;DHT22;11557;50.884;4.322;2023-03-01T06:39:07;2.20;99.90
22781;DHT22;11557;50.884;4.322;2023-03-01T06:41:33;1.90;99.90
22781;DHT22;11557;50.884;4.322;2023-03-01T06:43:59;1.80;99.90
22781;DHT22;11557;50.884;4.322;2023-03-01T06:46:25;1.90;99.90
22781;DHT22;11557;50.884;4.322;2023-03-01T06:48:51;1.70;99.90
22781;DHT22;11557;50.884;4.322;2023-03-01T06:51:16;1.90;99.90
22781;DHT22;11557;50.884;4.322;2023-03-01T06:53:42;1.90;99.90
22781;DHT22;11557;50.884;4.322;2023-03-01T06:56:08;2.30;99.90
22781;DHT22;11557;50.884;4.322;2023-03-01T06:58:34;2.60;99.90
22781;DHT22;11557;50.884;4.322;2023-03-01T07:01:00;2.10;99.90
22781;DHT22;11557;50.884;4.322;2023-03-01T07:03:25;2.10;99.90
22781;DHT22;11557;50.884;4.322;2023-03-01T07:05:51;2.10;99.90
22781;DHT22;11557;50.884;4.322;2023-03-01T07:08:18;2.10;99.90
22781;DHT22;11557;50.884;4.322;2023-03-01T07:10:44;3.20;99.90
22781;DHT22;11557;50.884;4.322;2023-03-01T07:13:09;2.20;99.90
22781;DHT22;11557;50.884;4.322;2023-03-01T07:15:36;1.70;99.90
22781;DHT22;11557;50.884;4.322;2023-03-01T07:18:02;2.00;99.90
22781;DHT22;11557;50.884;4.322;2023-03-01T07:20:28;2.00;99.90
22781;DHT22;11557;50.884;4.322;2023-03-01T07:22:54;2.10;99.90
22781;DHT22;11557;50.884;4.322;2023-03-01T07:25:20;2.80;99.90
22781;DHT22;11557;50.884;4.322;2023-03-01T07:27:50;2.10;99.90
22781;DHT22;11557;50.884;4.322;2023-03-01T07:30:17;2.00;99.90
22781;DHT22;11557;50.884;4.322;2023-03-01T07:32:43;2.10;99.90
22781;DHT22;11557;50.884;4.322;2023-03-01T07:35:08;2.00;99.90
22781;DHT22;11557;50.884;4.322;2023-03-01T07:37:34;2.00;99.90
22781;DHT22;11557;50.884;4.322;2023-03-01T07:40:00;2.30;99.90
22781;DHT22;11557;50.884;4.322;2023-03-01T07:42:26;1.80;99.90
22781;DHT22;11557;50.884;4.322;2023-03-01T07:44:52;3.20;99.90
22781;DHT22;11557;50.884;4.322;2023-03-01T07:47:17;2.20;99.90
22781;DHT22;11557;50.884;4.322;2023-03-01T07:49:43;2.80;99.90
22781;DHT22;11557;50.884;4.322;2023-03-01T07:52:12;2.40;99.90
22781;DHT22;11557;50.884;4.322;2023-03-01T07:54:38;2.90;99.90
22781;DHT22;11557;50.884;4.322;2023-03-01T07:57:04;2.30;99.90
22781;DHT22;11557;50.884;4.322;2023-03-01T07:59:29;2.40;99.90
22781;DHT22;11557;50.884;4.322;2023-03-01T08:01:56;2.50;99.90
22781;DHT22;11557;50.884;4.322;2023-03-01T08:04:22;3.00;99.90
22781;DHT22;11557;50.884;4.322;2023-03-01T08:06:50;2.30;99.90
22781;DHT22;11557;50.884;4.322;2023-03-01T08:09:16;2.30;99.90
22781;DHT22;11557;50.884;4.322;2023-03-01T08:11:41;3.00;99.90
22781;DHT22;11557;50.884;4.322;2023-03-01T08:14:07;2.50;99.90
22781;DHT22;11557;50.884;4.322;2023-03-01T08:16:33;2.40;99.90
22781;DHT22;11557;50.884;4.322;2023-03-01T08:19:07;2.50;99.90
22781;DHT22;11557;50.884;4.322;2023-03-01T08:21:34;2.60;99.90
22781;DHT22;11557;50.884;4.322;2023-03-01T08:24:04;2.60;99.90
22781;DHT22;11557;50.884;4.322;2023-03-01T08:26:30;2.50;99.90
22781;DHT22;11557;50.884;4.322;2023-03-01T08:28:55;3.00;99.90
22781;DHT22;11557;50.884;4.322;2023-03-01T08:31:37;2.60;99.90
22781;DHT22;11557;50.884;4.322;2023-03-01T08:34:06;2.70;99.90
22781;DHT22;11557;50.884;4.322;2023-03-01T08:36:37;2.80;99.90
22781;DHT22;11557;50.884;4.322;2023-03-01T08:39:04;2.80;99.90
22781;DHT22;11557;50.884;4.322;2023-03-01T08:41:30;3.20;99.90
22781;DHT22;11557;50.884;4.322;2023-03-01T08:43:56;2.80;99.90
22781;DHT22;11557;50.884;4.322;2023-03-01T08:46:39;2.70;99.90
22781;DHT22;11557;50.884;4.322;2023-03-01T08:49:12;2.70;99.90
22781;DHT22;11557;50.884;4.322;2023-03-01T08:51:38;2.60;99.90
22781;DHT22;11557;50.884;4.322;2023-03-01T08:54:09;3.30;99.90
22781;DHT22;11557;50.884;4.322;2023-03-01T08:56:37;2.90;99.90
22781;DHT22;11557;50.884;4.322;2023-03-01T08:59:02;3.00;99.90
22781;DHT22;11557;50.884;4.322;2023-03-01T09:01:29;3.20;99.90
22781;DHT22;11557;50.884;4.322;2023-03-01T09:03:55;3.20;99.90
22781;DHT22;11557;50.884;4.322;2023-03-01T09:06:21;3.20;99.90
22781;DHT22;11557;50.884;4.322;2023-03-01T09:08:48;3.30;99.90
22781;DHT22;11557;50.884;4.322;2023-03-01T09:11:18;3.30;99.90
22781;DHT22;11557;50.884;4.322;2023-03-01T09:13:44;3.30;99.90
22781;DHT22;11557;50.884;4.322;2023-03-01T09:16:11;4.30;99.90
22781;DHT22;11557;50.884;4.322;2023-03-01T09:18:37;6.50;99.90
22781;DHT22;11557;50.884;4.322;2023-03-01T09:21:11;8.50;99.90
22781;DHT22;11557;50.884;4.322;2023-03-01T09:23:41;10.60;99.90
22781;DHT22;11557;50.884;4.322;2023-03-01T09:26:09;12.60;99.90
22781;DHT22;11557;50.884;4.322;2023-03-01T09:28:35;13.50;99.90
22781;DHT22;11557;50.884;4.322;2023-03-01T09:31:01;14.40;99.90
22781;DHT22;11557;50.884;4.322;2023-03-01T09:33:29;16.10;99.90
22781;DHT22;11557;50.884;4.322;2023-03-01T09:36:02;17.10;99.90
22781;DHT22;11557;50.884;4.322;2023-03-01T09:38:28;17.80;99.90
22781;DHT22;11557;50.884;4.322;2023-03-01T09:40:54;18.20;99.90
22781;DHT22;11557;50.884;4.322;2023-03-01T09:46:07;17.70;99.50
22781;DHT22;11557;50.884;4.322;2023-03-01T09:48:43;17.90;99.50
22781;DHT22;11557;50.884;4.322;2023-03-01T09:51:17;18.30;98.70
22781;DHT22;11557;50.884;4.322;2023-03-01T09:53:44;18.80;97.70
22781;DHT22;11557;50.884;4.322;2023-03-01T09:56:28;17.90;97.40
22781;DHT22;11557;50.884;4.322;2023-03-01T10:04:28;16.70;96.70
22781;DHT22;11557;50.884;4.322;2023-03-01T10:09:40;17.00;97.30
22781;DHT22;11557;50.884;4.322;2023-03-01T10:12:19;16.70;97.90
22781;DHT22;11557;50.884;4.322;2023-03-01T10:15:00;16.70;98.20
22781;DHT22;11557;50.884;4.322;2023-03-01T10:17:36;16.20;98.20
22781;DHT22;11557;50.884;4.322;2023-03-01T10:22:47;16.50;97.30
22781;DHT22;11557;50.884;4.322;2023-03-01T10:25:20;16.20;98.10
22781;DHT22;11557;50.884;4.322;2023-03-01T10:27:54;15.90;98.10
22781;DHT22;11557;50.884;4.322;2023-03-01T10:30:34;15.70;97.80
22781;DHT22;11557;50.884;4.322;2023-03-01T10:33:01;15.30;97.90
22781;DHT22;11557;50.884;4.322;2023-03-01T10:35:31;15.00;98.50
22781;DHT22;11557;50.884;4.322;2023-03-01T10:38:03;14.50;99.00
22781;DHT22;11557;50.884;4.322;2023-03-01T10:40:29;14.40;99.40
22781;DHT22;11557;50.884;4.322;2023-03-01T10:42:57;14.00;99.70
22781;DHT22;11557;50.884;4.322;2023-03-01T10:45:34;14.10;99.90
22781;DHT22;11557;50.884;4.322;2023-03-01T10:48:21;13.50;99.90
22781;DHT22;11557;50.884;4.322;2023-03-01T10:51:05;13.50;99.90
22781;DHT22;11557;50.884;4.322;2023-03-01T10:53:35;13.50;99.90
22781;DHT22;11557;50.884;4.322;2023-03-01T10:56:05;13.60;99.90
22781;DHT22;11557;50.884;4.322;2023-03-01T10:58:33;13.50;99.90
22781;DHT22;11557;50.884;4.322;2023-03-01T11:01:23;13.20;99.90
22781;DHT22;11557;50.884;4.322;2023-03-01T11:04:11;12.80;99.90
22781;DHT22;11557;50.884;4.322;2023-03-01T11:06:38;12.80;99.90
22781;DHT22;11557;50.884;4.322;2023-03-01T11:09:22;12.60;99.90
22781;DHT22;11557;50.884;4.322;2023-03-01T11:11:54;12.40;99.90
22781;DHT22;11557;50.884;4.322;2023-03-01T11:14:29;12.20;99.90
22781;DHT22;11557;50.884;4.322;2023-03-01T11:17:05;11.60;99.90
22781;DHT22;11557;50.884;4.322;2023-03-01T11:19:31;10.90;99.90
22781;DHT22;11557;50.884;4.322;2023-03-01T11:24:37;11.00;99.90
22781;DHT22;11557;50.884;4.322;2023-03-01T11:27:16;10.80;99.90
22781;DHT22;11557;50.884;4.322;2023-03-01T11:29:51;10.20;99.90
22781;DHT22;11557;50.884;4.322;2023-03-01T11:32:23;10.30;99.90
22781;DHT22;11557;50.884;4.322;2023-03-01T11:35:04;10.50;99.90
22781;DHT22;11557;50.884;4.322;2023-03-01T11:40:10;9.90;99.90
22781;DHT22;11557;50.884;4.322;2023-03-01T11:43:20;9.90;99.90
22781;DHT22;11557;50.884;4.322;2023-03-01T11:48:37;9.90;99.90
22781;DHT22;11557;50.884;4.322;2023-03-01T11:51:21;9.80;99.90
22781;DHT22;11557;50.884;4.322;2023-03-01T11:54:02;9.50;99.90
22781;DHT22;11557;50.884;4.322;2023-03-01T11:59:24;9.60;99.90
22781;DHT22;11557;50.884;4.322;2023-03-01T12:02:08;9.40;99.90
22781;DHT22;11557;50.884;4.322;2023-03-01T12:10:48;9.20;99.90
22781;DHT22;11557;50.884;4.322;2023-03-01T12:19:01;9.20;99.90
22781;DHT22;11557;50.884;4.322;2023-03-01T12:26:47;9.40;99.90
22781;DHT22;11557;50.884;4.322;2023-03-01T12:40:33;9.40;99.90
22781;DHT22;11557;50.884;4.322;2023-03-01T12:51:10;9.50;99.90
22781;DHT22;11557;50.884;4.322;2023-03-01T12:53:48;9.40;99.90
22781;DHT22;11557;50.884;4.322;2023-03-01T12:56:18;9.40;99.90
22781;DHT22;11557;50.884;4.322;2023-03-01T13:01:45;8.80;99.90
22781;DHT22;11557;50.884;4.322;2023-03-01T13:04:24;8.80;99.90
22781;DHT22;11557;50.884;4.322;2023-03-01T13:07:11;8.90;99.90
22781;DHT22;11557;50.884;4.322;2023-03-01T13:12:42;9.00;99.90
22781;DHT22;11557;50.884;4.322;2023-03-01T13:17:53;9.30;99.90
22781;DHT22;11557;50.884;4.322;2023-03-01T13:20:21;9.10;99.90
22781;DHT22;11557;50.884;4.322;2023-03-01T13:22:48;9.10;99.90
22781;DHT22;11557;50.884;4.322;2023-03-01T13:25:26;9.10;99.90
22781;DHT22;11557;50.884;4.322;2023-03-01T13:28:54;9.20;99.90
22781;DHT22;11557;50.884;4.322;2023-03-01T13:31:02;9.20;99.90
22781;DHT22;11557;50.884;4.322;2023-03-01T13:35:55;8.90;99.90
22781;DHT22;11557;50.884;4.322;2023-03-01T13:44:24;9.00;99.90
22781;DHT22;11557;50.884;4.322;2023-03-01T13:49:48;9.10;99.90
22781;DHT22;11557;50.884;4.322;2023-03-01T13:52:42;9.00;99.90
22781;DHT22;11557;50.884;4.322;2023-03-01T13:57:43;8.90;99.90
22781;DHT22;11557;50.884;4.322;2023-03-01T14:00:33;8.70;99.90
22781;DHT22;11557;50.884;4.322;2023-03-01T14:03:14;8.80;99.90
22781;DHT22;11557;50.884;4.322;2023-03-01T14:05:42;8.80;99.90
22781;DHT22;11557;50.884;4.322;2023-03-01T14:08:21;8.90;99.90
22781;DHT22;11557;50.884;4.322;2023-03-01T14:11:20;9.00;99.90
22781;DHT22;11557;50.884;4.322;2023-03-01T14:16:34;9.20;99.90
22781;DHT22;11557;50.884;4.322;2023-03-01T14:19:25;9.20;99.90
22781;DHT22;11557;50.884;4.322;2023-03-01T14:22:24;9.30;99.90
22781;DHT22;11557;50.884;4.322;2023-03-01T14:27:20;9.00;99.90
22781;DHT22;11557;50.884;4.322;2023-03-01T14:30:00;9.00;99.90
22781;DHT22;11557;50.884;4.322;2023-03-01T14:32:29;9.20;99.90
22781;DHT22;11557;50.884;4.322;2023-03-01T14:34:56;9.30;99.90
22781;DHT22;11557;50.884;4.322;2023-03-01T14:37:30;9.40;99.90
22781;DHT22;11557;50.884;4.322;2023-03-01T14:39:58;9.50;99.90
22781;DHT22;11557;50.884;4.322;2023-03-01T14:42:28;9.40;99.90
22781;DHT22;11557;50.884;4.322;2023-03-01T14:44:55;9.40;99.90
22781;DHT22;11557;50.884;4.322;2023-03-01T14:47:35;9.40;99.90
22781;DHT22;11557;50.884;4.322;2023-03-01T14:50:30;9.50;99.90
22781;DHT22;11557;50.884;4.322;2023-03-01T14:53:02;9.30;99.90
22781;DHT22;11557;50.884;4.322;2023-03-01T14:55:36;9.30;99.90
22781;DHT22;11557;50.884;4.322;2023-03-01T14:58:09;9.20;99.90
22781;DHT22;11557;50.884;4.322;2023-03-01T15:00:37;9.30;99.90
22781;DHT22;11557;50.884;4.322;2023-03-01T15:03:17;9.00;99.90
22781;DHT22;11557;50.884;4.322;2023-03-01T15:05:45;9.00;99.90
22781;DHT22;11557;50.884;4.322;2023-03-01T15:08:21;9.00;99.90
22781;DHT22;11557;50.884;4.322;2023-03-01T15:13:26;9.60;99.90
22781;DHT22;11557;50.884;4.322;2023-03-01T15:16:01;9.80;99.90
22781;DHT22;11557;50.884;4.322;2023-03-01T15:18:29;9.70;99.90
22781;DHT22;11557;50.884;4.322;2023-03-01T15:20:56;9.70;99.90
22781;DHT22;11557;50.884;4.322;2023-03-01T15:23:30;9.70;99.90
22781;DHT22;11557;50.884;4.322;2023-03-01T15:25:57;9.70;99.90
22781;DHT22;11557;50.884;4.322;2023-03-01T15:28:29;9.40;99.90
22781;DHT22;11557;50.884;4.322;2023-03-01T15:31:20;9.40;99.90
22781;DHT22;11557;50.884;4.322;2023-03-01T15:33:47;9.20;99.90
22781;DHT22;11557;50.884;4.322;2023-03-01T15:36:46;9.20;99.90
22781;DHT22;11557;50.884;4.322;2023-03-01T15:42:08;9.00;99.90
22781;DHT22;11557;50.884;4.322;2023-03-01T15:44:39;9.00;99.90
22781;DHT22;11557;50.884;4.322;2023-03-01T15:47:31;9.00;99.90
22781;DHT22;11557;50.884;4.322;2023-03-01T15:49:58;9.30;99.90
22781;DHT22;11557;50.884;4.322;2023-03-01T15:52:28;9.20;99.90
22781;DHT22;11557;50.884;4.322;2023-03-01T15:55:00;9.20;99.90
22781;DHT22;11557;50.884;4.322;2023-03-01T15:57:26;9.10;99.90
22781;DHT22;11557;50.884;4.322;2023-03-01T15:59:52;9.00;99.90
22781;DHT22;11557;50.884;4.322;2023-03-01T16:02:18;8.90;99.90
22781;DHT22;11557;50.884;4.322;2023-03-01T16:04:46;8.90;99.90
22781;DHT22;11557;50.884;4.322;2023-03-01T16:07:12;8.90;99.90
22781;DHT22;11557;50.884;4.322;2023-03-01T16:09:37;8.70;99.90
22781;DHT22;11557;50.884;4.322;2023-03-01T16:12:03;8.80;99.90
22781;DHT22;11557;50.884;4.322;2023-03-01T16:14:29;8.90;99.90
22781;DHT22;11557;50.884;4.322;2023-03-01T16:16:55;8.80;99.90
22781;DHT22;11557;50.884;4.322;2023-03-01T16:19:20;8.70;99.90
22781;DHT22;11557;50.884;4.322;2023-03-01T16:21:46;8.60;99.90
22781;DHT22;11557;50.884;4.322;2023-03-01T16:24:14;8.60;99.90
22781;DHT22;11557;50.884;4.322;2023-03-01T16:26:40;8.60;99.90
22781;DHT22;11557;50.884;4.322;2023-03-01T16:29:06;8.50;99.90
22781;DHT22;11557;50.884;4.322;2023-03-01T16:31:31;8.50;99.90
22781;DHT22;11557;50.884;4.322;2023-03-01T16:33:58;8.30;99.90
22781;DHT22;11557;50.884;4.322;2023-03-01T16:36:26;8.20;99.90
22781;DHT22;11557;50.884;4.322;2023-03-01T16:38:54;8.00;99.90
22781;DHT22;11557;50.884;4.322;2023-03-01T16:41:21;8.00;99.90
22781;DHT22;11557;50.884;4.322;2023-03-01T16:43:48;7.90;99.90
22781;DHT22;11557;50.884;4.322;2023-03-01T16:48:45;7.70;99.90
22781;DHT22;11557;50.884;4.322;2023-03-01T16:51:11;7.70;99.90
22781;DHT22;11557;50.884;4.322;2023-03-01T16:53:37;7.50;99.90
22781;DHT22;11557;50.884;4.322;2023-03-01T16:56:05;7.60;99.90
22781;DHT22;11557;50.884;4.322;2023-03-01T16:58:31;7.50;99.90
22781;DHT22;11557;50.884;4.322;2023-03-01T17:01:07;7.50;99.90
22781;DHT22;11557;50.884;4.322;2023-03-01T17:03:33;7.40;99.90
22781;DHT22;11557;50.884;4.322;2023-03-01T17:06:08;7.30;99.90
22781;DHT22;11557;50.884;4.322;2023-03-01T17:08:34;7.30;99.90
22781;DHT22;11557;50.884;4.322;2023-03-01T17:11:05;7.20;99.90
22781;DHT22;11557;50.884;4.322;2023-03-01T17:13:31;7.20;99.90
22781;DHT22;11557;50.884;4.322;2023-03-01T17:15:57;7.30;99.90
22781;DHT22;11557;50.884;4.322;2023-03-01T17:18:23;7.20;99.90
22781;DHT22;11557;50.884;4.322;2023-03-01T17:20:49;7.20;99.90
22781;DHT22;11557;50.884;4.322;2023-03-01T17:23:15;7.20;99.90
22781;DHT22;11557;50.884;4.322;2023-03-01T17:25:42;7.00;99.90
22781;DHT22;11557;50.884;4.322;2023-03-01T17:28:10;7.00;99.90
22781;DHT22;11557;50.884;4.322;2023-03-01T17:30:36;6.90;99.90
22781;DHT22;11557;50.884;4.322;2023-03-01T17:33:01;7.00;99.90
22781;DHT22;11557;50.884;4.322;2023-03-01T17:35:27;7.00;99.90
22781;DHT22;11557;50.884;4.322;2023-03-01T17:37:53;7.20;99.90
22781;DHT22;11557;50.884;4.322;2023-03-01T17:40:18;7.20;99.90
22781;DHT22;11557;50.884;4.322;2023-03-01T17:42:45;7.10;99.90